Bayard, NE (69334)

10:14 PM MDT on August 31, 2015 (GMT -0600)
Bridgeport Ampride | | Change Station
CLOSE
Current Station
Personal Weather Station
Location: Bridgeport, NE
Elevation: 3671 ft
Nearby Weather Stations

Elev 3671 ft 41.67 °N, 103.10 °W | Updated 11 minutes ago

Mostly Cloudy
Mostly Cloudy
70.2 °F
Feels Like 76 °F
N
4.0
Wind Variable Wind from ESE
Gusts 4.0 mph

Today
High -- | Low -- °F
--% Chance of Precip.
Yesterday
High -- | Low -- °F
Precip. -- in
6:17 AM 7:28 PM
Waning Gibbous, 91% visible
Pressure 29.90 in
Visibility 10.0 miles
Clouds Few 10000 ft
Heat Index 76 °F
Dew Point 56 °F
Humidity 60%
Rainfall 0.00 in
Snow Depth Not available.
UV 0 out of 12
Pollen 9.90 out of 12
Air Quality Not available.
Flu Activity Not available.
METAR KBFF 010353Z AUTO 22008KT 10SM FEW100 19/13 A3003 RMK AO2 SLP124 T01940128
Pressure 29.90 in
Visibility 10.0 miles
Clouds Few 10000 ft
Heat Index 76 °F
Dew Point 56 °F
Humidity 60%
Rainfall 0.00 in
Snow Depth Not available.
UV 0 out of 12
Pollen 9.90 out of 12
Air Quality Not available.
Flu Activity Not available.
METAR KBFF 010353Z AUTO 22008KT 10SM FEW100 19/13 A3003 RMK AO2 SLP124 T01940128

10-Day Weather Forecast

×

Almanac

Astronomy

Aug. 31, 2015 Rise Set
Actual Time
Civil Twilight
Nautical Twilight
Astronomical Twilight
Moon
Length of Visible Light
Length of Day
Tomorrow will be .
, % of the Moon is Illuminated

Today's Extremes

State Highs State Lows

Community

WunderPhotos

Upload Photos

1,851,477 photos uploaded!

WunderBlogs® & News

Nearby

Air Quality

  Air Quality AQ Index Pollutant
Not available.

Snow Depth

Station Depth Elevation

Earthquake Activity

City Distance Mag. Time & Date
Minimum magnitude displayed is 2.5.

Coastal Water Temperatures

Place Temperature

Stations

Nearby Weather Stations

Station Location Temp. Windchill Dew Point Humidity Wind Precip. Elev Updated Type